Time;durP1;ratioP1;P1;durP2;ratioP2;P2;SDS_P1;SDS_P2;PMS_P1;PMS_P2;Temp;Humidity;BMP_temperature;BMP_pressure;BME280_temperature;BME280_humidity;BME280_pressure;Samples;Min_cycle;Max_cycle;Signal;HPM_P1;HPM_P2
2023/09/28 00:01:16;;;;;;;14.77;7.82;;;;;;;;;;5109072;28;20051;-60
2023/09/28 00:03:43;;;;;;;14.27;8.35;;;;;;;;;;5106162;28;20043;-59
2023/09/28 00:06:09;;;;;;;18.40;8.68;;;;;;;;;;5109850;28;20047;-60
2023/09/28 00:08:35;;;;;;;16.17;8.50;;;;;;;;;;5109512;28;20043;-59
2023/09/28 00:11:01;;;;;;;17.13;8.18;;;;;;;;;;5109857;28;20462;-61
2023/09/28 00:13:27;;;;;;;16.08;8.35;;;;;;;;;;5107277;28;20036;-59
2023/09/28 00:15:53;;;;;;;16.20;8.70;;;;;;;;;;5087397;28;20039;-60
2023/09/28 00:18:21;;;;;;;16.00;8.02;;;;;;;;;;5110493;28;20035;-59
2023/09/28 00:20:47;;;;;;;15.40;8.05;;;;;;;;;;5108973;28;20051;-60
2023/09/28 00:23:14;;;;;;;17.42;8.40;;;;;;;;;;5106822;28;20024;-60
2023/09/28 00:25:40;;;;;;;15.80;7.65;;;;;;;;;;5111277;28;20030;-60
2023/09/28 00:28:06;;;;;;;16.45;8.73;;;;;;;;;;5110329;28;20042;-59
2023/09/28 00:30:32;;;;;;;16.33;8.13;;;;;;;;;;5084551;28;20088;-60
2023/09/28 00:32:59;;;;;;;22.45;9.18;;;;;;;;;;5108717;28;20055;-60
2023/09/28 00:35:27;;;;;;;17.40;8.70;;;;;;;;;;5085204;28;20050;-60
2023/09/28 00:37:54;;;;;;;17.58;8.57;;;;;;;;;;5091591;28;20027;-60
2023/09/28 00:40:21;;;;;;;16.80;7.70;;;;;;;;;;5092685;28;20035;-59
2023/09/28 00:42:49;;;;;;;17.13;7.78;;;;;;;;;;5106884;28;20525;-59
2023/09/28 00:45:16;;;;;;;17.90;8.20;;;;;;;;;;5082290;28;20024;-59
2023/09/28 00:47:44;;;;;;;15.50;7.63;;;;;;;;;;5109278;28;20050;-60
2023/09/28 00:50:17;;;;;;;15.40;8.45;;;;;;;;;;5109583;28;20043;-60
2023/09/28 00:52:48;;;;;;;17.13;8.48;;;;;;;;;;5081904;28;20039;-60
2023/09/28 00:55:18;;;;;;;14.50;7.38;;;;;;;;;;5083041;28;20055;-60
2023/09/28 00:57:46;;;;;;;15.65;7.38;;;;;;;;;;5106109;28;20031;-60
2023/09/28 01:00:29;;;;;;;18.23;8.23;;;;;;;;;;5108735;28;20035;-60
2023/09/28 01:02:57;;;;;;;15.82;7.22;;;;;;;;;;5089040;28;20414;-60
2023/09/28 01:05:34;;;;;;;13.75;7.00;;;;;;;;;;5108411;28;20038;-60
2023/09/28 01:08:12;;;;;;;13.40;6.55;;;;;;;;;;5106562;28;20055;-60
2023/09/28 01:10:40;;;;;;;13.52;6.93;;;;;;;;;;5108212;28;20039;-60
2023/09/28 01:13:11;;;;;;;18.77;7.07;;;;;;;;;;5090626;28;20027;-60
2023/09/28 01:15:42;;;;;;;14.68;6.95;;;;;;;;;;5083716;28;20036;-60
2023/09/28 01:18:09;;;;;;;12.65;6.68;;;;;;;;;;5106359;28;20031;-60
2023/09/28 01:20:37;;;;;;;13.77;6.45;;;;;;;;;;5109027;28;20042;-59
2023/09/28 01:23:04;;;;;;;10.90;6.07;;;;;;;;;;5107801;28;20112;-59
2023/09/28 01:25:34;;;;;;;13.05;6.93;;;;;;;;;;5092082;28;20023;-60
2023/09/28 01:28:00;;;;;;;;;;;;;;;;;;5091213;28;20537;-59
2023/09/28 01:30:27;;;;;;;15.98;6.22;;;;;;;;;;5085238;28;19919;-60
2023/09/28 01:32:53;;;;;;;13.27;5.68;;;;;;;;;;5090583;28;20514;-60
2023/09/28 01:35:20;;;;;;;13.25;6.65;;;;;;;;;;5091177;28;20042;-61
2023/09/28 01:37:52;;;;;;;13.63;5.82;;;;;;;;;;5089249;28;20047;-61
2023/09/28 01:40:18;;;;;;;16.33;5.55;;;;;;;;;;5101237;28;20078;-61
2023/09/28 01:42:44;;;;;;;13.68;5.70;;;;;;;;;;5107927;28;20051;-61
2023/09/28 01:45:15;;;;;;;12.57;5.20;;;;;;;;;;5107250;28;20062;-60
2023/09/28 01:47:41;;;;;;;11.45;5.30;;;;;;;;;;5088064;28;20044;-61
2023/09/28 01:50:08;;;;;;;14.23;5.32;;;;;;;;;;5106759;28;20047;-60
2023/09/28 01:52:34;;;;;;;12.00;5.20;;;;;;;;;;5109277;28;20051;-60
2023/09/28 01:55:00;;;;;;;12.02;4.93;;;;;;;;;;5081348;28;20040;-60
2023/09/28 01:57:26;;;;;;;10.23;5.00;;;;;;;;;;5088733;28;20398;-61
2023/09/28 01:59:52;;;;;;;14.60;5.28;;;;;;;;;;5086831;28;20040;-61
2023/09/28 02:02:20;;;;;;;14.70;5.57;;;;;;;;;;5107789;28;20051;-59
2023/09/28 02:04:46;;;;;;;11.50;4.70;;;;;;;;;;5088027;28;20475;-59
2023/09/28 02:07:12;;;;;;;14.43;5.20;;;;;;;;;;5107580;28;20528;-60
2023/09/28 02:09:39;;;;;;;11.57;4.88;;;;;;;;;;5081860;28;20047;-60
2023/09/28 02:12:06;;;;;;;9.15;4.82;;;;;;;;;;5080927;28;20036;-59
2023/09/28 02:14:33;;;;;;;13.35;5.22;;;;;;;;;;5088730;28;20043;-59
2023/09/28 02:16:59;;;;;;;11.85;5.50;;;;;;;;;;5105023;28;20414;-59
2023/09/28 02:19:25;;;;;;;10.70;4.55;;;;;;;;;;5089264;28;20495;-60
2023/09/28 02:21:52;;;;;;;10.27;4.47;;;;;;;;;;5105889;28;20047;-60
2023/09/28 02:24:18;;;;;;;11.45;4.38;;;;;;;;;;5107405;28;20047;-60
2023/09/28 02:26:47;;;;;;;11.52;5.03;;;;;;;;;;5109114;28;20039;-59
2023/09/28 02:29:13;;;;;;;11.02;4.60;;;;;;;;;;5108626;28;20039;-60
2023/09/28 02:31:41;;;;;;;10.05;4.57;;;;;;;;;;5078217;28;20032;-60
2023/09/28 02:34:07;;;;;;;10.68;4.50;;;;;;;;;;5106806;28;20050;-60
2023/09/28 02:36:33;;;;;;;12.52;5.07;;;;;;;;;;5084123;28;20027;-60
2023/09/28 02:39:00;;;;;;;10.30;4.85;;;;;;;;;;5086480;28;20094;-59
2023/09/28 02:41:26;;;;;;;10.82;4.70;;;;;;;;;;5083371;28;20051;-59
2023/09/28 02:43:52;;;;;;;9.38;4.60;;;;;;;;;;5105659;28;20038;-59
2023/09/28 02:46:18;;;;;;;10.02;4.50;;;;;;;;;;5106761;28;20031;-59
2023/09/28 02:48:45;;;;;;;9.38;4.43;;;;;;;;;;5062459;28;20054;-59
2023/09/28 02:51:11;;;;;;;13.23;4.90;;;;;;;;;;5088701;28;20051;-60
2023/09/28 02:53:37;;;;;;;9.07;4.20;;;;;;;;;;5105911;28;20067;-60
2023/09/28 02:56:03;;;;;;;9.82;4.47;;;;;;;;;;5104347;28;20039;-59
2023/09/28 02:58:29;;;;;;;10.40;4.57;;;;;;;;;;5087876;28;20070;-60
2023/09/28 03:00:56;;;;;;;8.77;4.20;;;;;;;;;;5084175;28;20487;-59
2023/09/28 03:03:26;;;;;;;13.50;5.30;;;;;;;;;;5088956;28;20418;-59
2023/09/28 03:05:54;;;;;;;11.27;4.80;;;;;;;;;;5090501;28;20055;-59
2023/09/28 03:08:21;;;;;;;11.25;4.47;;;;;;;;;;5074626;28;20043;-59
2023/09/28 03:10:47;;;;;;;11.45;4.95;;;;;;;;;;5106264;28;20046;-59
2023/09/28 03:13:13;;;;;;;10.30;5.55;;;;;;;;;;5087603;28;20027;-59
2023/09/28 03:15:43;;;;;;;11.20;5.10;;;;;;;;;;5105787;28;20398;-59
2023/09/28 03:18:10;;;;;;;;;;;;;;;;;;5086845;28;20035;-58
2023/09/28 03:20:36;;;;;;;12.70;4.85;;;;;;;;;;5096274;28;19912;-58
2023/09/28 03:23:05;;;;;;;11.23;5.32;;;;;;;;;;5088435;28;20058;-58
2023/09/28 03:25:31;;;;;;;10.90;4.97;;;;;;;;;;5094513;28;20407;-60
2023/09/28 03:27:57;;;;;;;11.45;5.35;;;;;;;;;;5087348;28;20035;-59
2023/09/28 03:30:25;;;;;;;11.25;5.72;;;;;;;;;;5106079;28;20403;-59
2023/09/28 03:32:53;;;;;;;12.70;5.78;;;;;;;;;;5082758;28;20035;-58
2023/09/28 03:35:20;;;;;;;12.02;5.68;;;;;;;;;;5105395;28;20031;-59
2023/09/28 03:37:47;;;;;;;16.17;6.00;;;;;;;;;;5104004;28;20043;-59
2023/09/28 03:40:14;;;;;;;15.32;6.18;;;;;;;;;;5106616;28;20024;-59
2023/09/28 03:42:46;;;;;;;11.15;6.40;;;;;;;;;;5106738;28;20080;-60
2023/09/28 03:45:15;;;;;;;10.88;5.97;;;;;;;;;;5103828;28;20038;-60
2023/09/28 03:47:42;;;;;;;12.10;5.82;;;;;;;;;;5085371;28;20044;-59
2023/09/28 03:50:11;;;;;;;10.05;5.55;;;;;;;;;;5105881;28;20054;-61
2023/09/28 03:52:37;;;;;;;13.88;6.15;;;;;;;;;;5105317;28;20070;-59
2023/09/28 03:55:05;;;;;;;12.68;6.22;;;;;;;;;;5104701;28;20043;-60
2023/09/28 03:57:31;;;;;;;10.32;6.00;;;;;;;;;;5070074;28;20031;-59
2023/09/28 03:59:57;;;;;;;12.13;5.93;;;;;;;;;;5105706;28;20047;-59
2023/09/28 04:02:30;;;;;;;11.10;5.53;;;;;;;;;;5106604;28;20030;-58
2023/09/28 04:04:56;;;;;;;11.48;5.13;;;;;;;;;;5104756;28;20028;-60
2023/09/28 04:07:22;;;;;;;10.77;5.45;;;;;;;;;;5104375;28;20093;-59
2023/09/28 04:09:49;;;;;;;11.30;5.45;;;;;;;;;;5084200;28;20032;-62
2023/09/28 04:12:16;;;;;;;12.10;5.00;;;;;;;;;;5097728;28;20066;-59
2023/09/28 04:14:42;;;;;;;13.82;6.05;;;;;;;;;;5105336;28;20036;-59
2023/09/28 04:17:08;;;;;;;11.93;5.35;;;;;;;;;;5102444;28;20121;-58
2023/09/28 04:19:34;;;;;;;11.88;5.43;;;;;;;;;;5086654;28;20032;-59
2023/09/28 04:22:00;;;;;;;13.27;5.53;;;;;;;;;;5108125;28;20058;-59
2023/09/28 04:24:26;;;;;;;10.82;5.85;;;;;;;;;;5111050;28;20044;-59
2023/09/28 04:26:57;;;;;;;12.60;6.25;;;;;;;;;;5110475;28;20023;-59
2023/09/28 04:29:24;;;;;;;14.73;6.47;;;;;;;;;;5103737;28;20423;-59
2023/09/28 04:31:51;;;;;;;13.27;6.40;;;;;;;;;;5109009;28;20031;-59
2023/09/28 04:34:18;;;;;;;13.27;6.43;;;;;;;;;;5108104;28;20063;-60
2023/09/28 04:36:45;;;;;;;13.30;6.70;;;;;;;;;;5107442;28;20043;-60
2023/09/28 04:39:11;;;;;;;14.77;6.88;;;;;;;;;;5107993;28;20035;-59
2023/09/28 04:41:38;;;;;;;13.20;6.50;;;;;;;;;;5107551;28;20054;-59
2023/09/28 04:44:05;;;;;;;15.20;7.25;;;;;;;;;;5107042;28;20054;-60
2023/09/28 04:46:31;;;;;;;15.18;6.97;;;;;;;;;;5087471;28;20044;-59
2023/09/28 04:48:58;;;;;;;17.25;7.63;;;;;;;;;;5108127;28;20043;-60
2023/09/28 04:51:24;;;;;;;12.75;6.63;;;;;;;;;;5089493;28;20489;-59
2023/09/28 04:53:50;;;;;;;16.65;7.35;;;;;;;;;;5107110;28;20051;-60
2023/09/28 04:56:16;;;;;;;14.80;6.78;;;;;;;;;;5104377;28;20027;-60
2023/09/28 04:58:43;;;;;;;15.55;6.50;;;;;;;;;;5103058;28;20039;-60
2023/09/28 05:01:09;;;;;;;14.30;6.72;;;;;;;;;;5106903;28;20036;-60
2023/09/28 05:03:36;;;;;;;14.25;6.80;;;;;;;;;;5089971;28;20054;-61
2023/09/28 05:06:02;;;;;;;12.25;6.53;;;;;;;;;;5108785;28;20035;-59
2023/09/28 05:08:28;;;;;;;12.93;6.43;;;;;;;;;;5107714;28;20032;-58
2023/09/28 05:10:54;;;;;;;25.38;9.98;;;;;;;;;;5090663;28;20035;-60
2023/09/28 05:13:21;;;;;;;20.23;8.77;;;;;;;;;;5107302;28;20047;-60
2023/09/28 05:15:47;;;;;;;16.77;7.80;;;;;;;;;;5107924;28;20058;-59
2023/09/28 05:18:13;;;;;;;15.15;7.50;;;;;;;;;;5108071;28;20082;-61
2023/09/28 05:20:42;;;;;;;16.73;6.35;;;;;;;;;;5108653;28;20034;-61
2023/09/28 05:23:09;;;;;;;20.83;8.30;;;;;;;;;;5107515;28;20027;-60
2023/09/28 05:25:35;;;;;;;18.27;7.43;;;;;;;;;;5106522;28;20043;-61
2023/09/28 05:28:02;;;;;;;16.65;7.43;;;;;;;;;;5108282;28;20046;-60
2023/09/28 05:30:28;;;;;;;15.80;6.70;;;;;;;;;;5109094;28;20036;-60
2023/09/28 05:32:54;;;;;;;13.82;6.07;;;;;;;;;;5106964;28;20035;-61
2023/09/28 05:35:22;;;;;;;19.27;8.40;;;;;;;;;;5105706;28;20052;-59
2023/09/28 05:37:48;;;;;;;17.38;8.00;;;;;;;;;;5106502;28;20040;-60
2023/09/28 05:40:14;;;;;;;14.48;7.10;;;;;;;;;;5106838;28;20031;-60
2023/09/28 05:42:41;;;;;;;18.50;7.75;;;;;;;;;;5106280;28;20043;-60
2023/09/28 05:45:08;;;;;;;13.75;7.38;;;;;;;;;;5105517;28;20031;-60
2023/09/28 05:47:37;;;;;;;15.95;7.90;;;;;;;;;;5088180;28;20040;-60
2023/09/28 05:50:04;;;;;;;15.32;7.28;;;;;;;;;;5105619;28;20369;-60
2023/09/28 05:52:30;;;;;;;15.25;7.57;;;;;;;;;;5104333;28;20419;-60
2023/09/28 05:54:57;;;;;;;17.38;7.30;;;;;;;;;;5084525;28;20406;-60
2023/09/28 05:57:23;;;;;;;16.08;7.75;;;;;;;;;;5083711;28;20043;-60
2023/09/28 05:59:49;;;;;;;18.35;7.57;;;;;;;;;;5102687;28;20044;-60
2023/09/28 06:02:16;;;;;;;15.20;7.55;;;;;;;;;;5081270;28;20388;-60
2023/09/28 06:04:42;;;;;;;16.45;7.10;;;;;;;;;;5088313;28;20039;-60
2023/09/28 06:07:10;;;;;;;13.77;7.00;;;;;;;;;;5104597;28;20046;-60
2023/09/28 06:09:37;;;;;;;17.45;8.77;;;;;;;;;;5103239;28;20443;-60
2023/09/28 06:12:05;;;;;;;15.80;7.70;;;;;;;;;;5100714;28;20039;-61
2023/09/28 06:14:31;;;;;;;16.95;8.00;;;;;;;;;;5106431;28;20533;-61
2023/09/28 06:16:57;;;;;;;16.50;8.63;;;;;;;;;;5106147;28;20071;-60
2023/09/28 06:19:24;;;;;;;17.75;8.20;;;;;;;;;;5102996;28;20055;-60
2023/09/28 06:21:50;;;;;;;17.67;8.65;;;;;;;;;;5104826;28;20024;-60
2023/09/28 06:24:16;;;;;;;18.02;8.93;;;;;;;;;;5106387;28;20027;-60
2023/09/28 06:26:42;;;;;;;18.95;8.20;;;;;;;;;;5105215;28;20040;-60
2023/09/28 06:29:09;;;;;;;13.88;7.18;;;;;;;;;;5106566;28;20043;-60
2023/09/28 06:31:36;;;;;;;16.27;7.00;;;;;;;;;;5106935;28;20038;-60
2023/09/28 06:34:02;;;;;;;15.30;8.23;;;;;;;;;;5104199;28;20047;-60
2023/09/28 06:36:29;;;;;;;19.65;10.02;;;;;;;;;;5087981;28;20044;-60
2023/09/28 06:38:55;;;;;;;20.02;9.23;;;;;;;;;;5104123;28;20429;-60
2023/09/28 06:41:22;;;;;;;18.65;9.20;;;;;;;;;;5103883;28;20035;-60
2023/09/28 06:43:48;;;;;;;24.80;11.52;;;;;;;;;;5103217;28;20051;-60
2023/09/28 06:46:15;;;;;;;23.40;10.45;;;;;;;;;;5084445;28;20047;-60
2023/09/28 06:48:41;;;;;;;28.45;11.52;;;;;;;;;;5104942;28;20058;-60
2023/09/28 06:51:07;;;;;;;23.20;9.75;;;;;;;;;;5088314;28;20416;-60
2023/09/28 06:53:33;;;;;;;29.40;10.85;;;;;;;;;;5102192;28;20048;-60
2023/09/28 06:55:59;;;;;;;20.90;8.85;;;;;;;;;;5104977;27;20052;-60
2023/09/28 06:58:26;;;;;;;25.08;9.52;;;;;;;;;;5105384;28;20035;-60
2023/09/28 07:00:53;;;;;;;19.83;8.77;;;;;;;;;;5103535;28;20050;-60
2023/09/28 07:03:19;;;;;;;30.67;11.57;;;;;;;;;;5086782;28;20070;-60
2023/09/28 07:05:46;;;;;;;29.33;11.93;;;;;;;;;;5106029;28;20036;-60
2023/09/28 07:08:12;;;;;;;29.90;11.65;;;;;;;;;;5103484;28;20410;-60
2023/09/28 07:10:38;;;;;;;29.17;11.82;;;;;;;;;;5106807;27;20028;-61
2023/09/28 07:13:06;;;;;;;27.20;11.05;;;;;;;;;;5105742;28;20039;-60
2023/09/28 07:15:33;;;;;;;26.05;11.18;;;;;;;;;;5100240;28;20032;-60
2023/09/28 07:18:03;;;;;;;28.60;12.25;;;;;;;;;;5100254;28;20052;-60
2023/09/28 07:20:29;;;;;;;28.90;11.27;;;;;;;;;;5102138;28;20062;-60
2023/09/28 07:22:56;;;;;;;23.50;10.00;;;;;;;;;;5105318;28;20521;-60
2023/09/28 07:25:25;;;;;;;21.45;8.57;;;;;;;;;;5106517;28;20024;-60
2023/09/28 07:27:52;;;;;;;24.33;9.87;;;;;;;;;;5086681;28;20538;-60
2023/09/28 07:30:19;;;;;;;22.17;9.07;;;;;;;;;;5105857;28;20034;-60
2023/09/28 07:32:46;;;;;;;20.30;8.90;;;;;;;;;;5106294;28;20553;-60
2023/09/28 07:35:13;;;;;;;25.45;8.65;;;;;;;;;;5082234;28;20079;-60
2023/09/28 07:37:42;;;;;;;20.48;8.60;;;;;;;;;;5085341;28;20438;-60
2023/09/28 07:40:10;;;;;;;19.25;8.07;;;;;;;;;;5102964;28;20418;-60
2023/09/28 07:42:36;;;;;;;20.57;8.47;;;;;;;;;;5088183;28;20533;-60
2023/09/28 07:45:03;;;;;;;17.48;7.85;;;;;;;;;;5103481;28;20047;-60
2023/09/28 07:47:29;;;;;;;19.27;8.55;;;;;;;;;;5104730;28;20040;-60
2023/09/28 07:49:55;;;;;;;19.05;8.45;;;;;;;;;;5087614;28;20036;-60
2023/09/28 07:52:21;;;;;;;18.60;8.40;;;;;;;;;;5106756;28;20032;-60
2023/09/28 07:54:47;;;;;;;19.38;8.35;;;;;;;;;;5104772;28;20035;-60
2023/09/28 07:57:14;;;;;;;15.93;8.48;;;;;;;;;;5108273;28;20070;-60
2023/09/28 07:59:40;;;;;;;18.52;8.25;;;;;;;;;;5106256;28;20526;-60
2023/09/28 08:02:09;;;;;;;16.30;7.70;;;;;;;;;;5107696;28;20055;-60
2023/09/28 08:04:36;;;;;;;;;;;;;;;;;;5091871;28;20036;-60
2023/09/28 08:07:03;;;;;;;18.65;8.05;;;;;;;;;;5108956;28;19915;-60
2023/09/28 08:09:30;;;;;;;18.15;7.80;;;;;;;;;;5109313;28;20024;-60
2023/09/28 08:11:56;;;;;;;18.90;7.43;;;;;;;;;;5103961;28;20039;-60
2023/09/28 08:14:22;;;;;;;19.58;8.10;;;;;;;;;;5104536;28;20035;-60
2023/09/28 08:16:48;;;;;;;18.55;7.97;;;;;;;;;;5086107;28;20035;-60
2023/09/28 08:19:15;;;;;;;22.35;7.72;;;;;;;;;;5101023;28;20521;-60
2023/09/28 08:21:41;;;;;;;19.27;8.07;;;;;;;;;;5084577;28;20051;-60
2023/09/28 08:24:08;;;;;;;14.32;6.82;;;;;;;;;;5106601;28;20027;-60
2023/09/28 08:26:35;;;;;;;16.60;8.02;;;;;;;;;;5076466;28;20028;-60
2023/09/28 08:29:04;;;;;;;14.88;6.82;;;;;;;;;;5106750;28;20036;-60
2023/09/28 08:31:32;;;;;;;15.80;7.65;;;;;;;;;;5108386;28;20051;-59
2023/09/28 08:33:59;;;;;;;19.17;7.72;;;;;;;;;;5107165;28;20064;-60
2023/09/28 08:36:29;;;;;;;18.55;8.32;;;;;;;;;;5106704;28;20505;-60
2023/09/28 08:38:56;;;;;;;18.20;8.13;;;;;;;;;;5104492;28;20403;-60
2023/09/28 08:41:43;;;;;;;15.07;7.18;;;;;;;;;;5101578;28;20034;-59
2023/09/28 08:44:11;;;;;;;16.60;7.50;;;;;;;;;;5103934;28;20510;-59
2023/09/28 08:46:38;;;;;;;15.30;7.63;;;;;;;;;;5102567;28;20042;-59
2023/09/28 08:49:06;;;;;;;15.85;7.45;;;;;;;;;;5104980;28;20047;-60
2023/09/28 08:51:34;;;;;;;15.70;7.97;;;;;;;;;;5102926;28;20031;-60
2023/09/28 08:54:04;;;;;;;15.73;7.75;;;;;;;;;;5106070;28;20043;-60
2023/09/28 08:56:36;;;;;;;16.05;7.72;;;;;;;;;;5097801;28;20039;-59
2023/09/28 08:59:06;;;;;;;16.13;7.45;;;;;;;;;;5104163;28;20031;-60
2023/09/28 09:01:32;;;;;;;15.95;7.50;;;;;;;;;;5103485;28;20052;-60
2023/09/28 09:03:59;;;;;;;15.13;7.38;;;;;;;;;;5096213;28;20443;-60
2023/09/28 09:06:30;;;;;;;21.23;7.97;;;;;;;;;;5101944;28;20036;-59
2023/09/28 09:09:03;;;;;;;16.88;7.65;;;;;;;;;;5110253;28;20031;-60
2023/09/28 09:11:31;;;;;;;21.08;7.28;;;;;;;;;;5097631;28;20438;-59
2023/09/28 09:13:58;;;;;;;14.30;6.95;;;;;;;;;;5102831;28;20066;-61
2023/09/28 09:16:26;;;;;;;13.35;6.55;;;;;;;;;;5102731;28;20055;-59
2023/09/28 09:18:54;;;;;;;16.08;6.93;;;;;;;;;;5101409;28;20043;-59
2023/09/28 09:21:21;;;;;;;14.52;5.95;;;;;;;;;;5100635;28;20415;-59
2023/09/28 09:24:10;;;;;;;21.35;7.10;;;;;;;;;;5104955;28;20027;-59
2023/09/28 09:26:44;;;;;;;12.57;5.82;;;;;;;;;;5106002;28;20042;-60
2023/09/28 09:29:12;;;;;;;12.55;6.15;;;;;;;;;;5108136;28;20040;-57
2023/09/28 09:31:40;;;;;;;10.18;5.30;;;;;;;;;;5108181;28;20038;-58
2023/09/28 09:34:11;;;;;;;10.85;5.07;;;;;;;;;;5087481;28;20035;-57
2023/09/28 09:36:38;;;;;;;12.60;5.57;;;;;;;;;;5107399;28;20115;-58
2023/09/28 09:39:06;;;;;;;10.82;4.97;;;;;;;;;;5105108;28;20517;-57
2023/09/28 09:41:45;;;;;;;8.07;3.88;;;;;;;;;;5106240;28;20043;-58
2023/09/28 09:44:15;;;;;;;10.15;4.05;;;;;;;;;;5105276;28;20638;-57
2023/09/28 09:46:41;;;;;;;7.85;4.13;;;;;;;;;;5105130;28;20028;-57
2023/09/28 09:49:08;;;;;;;6.82;3.65;;;;;;;;;;5107220;28;20039;-58
2023/09/28 09:51:35;;;;;;;8.07;4.18;;;;;;;;;;5087669;28;20039;-57
2023/09/28 09:54:03;;;;;;;7.72;4.28;;;;;;;;;;5105473;28;20039;-58
2023/09/28 09:56:33;;;;;;;6.97;4.07;;;;;;;;;;5105161;28;20376;-58
2023/09/28 09:59:05;;;;;;;10.40;4.47;;;;;;;;;;5106243;28;20058;-58
2023/09/28 10:01:34;;;;;;;7.93;4.00;;;;;;;;;;5105664;28;20032;-57
2023/09/28 10:04:04;;;;;;;9.45;4.30;;;;;;;;;;5107646;28;20067;-58
2023/09/28 10:06:31;;;;;;;7.38;3.95;;;;;;;;;;5086759;28;20443;-58
2023/09/28 10:08:57;;;;;;;8.88;3.83;;;;;;;;;;5084583;28;20042;-58
2023/09/28 10:11:24;;;;;;;7.10;3.58;;;;;;;;;;5073011;28;20046;-57
2023/09/28 10:13:50;;;;;;;8.00;3.40;;;;;;;;;;5108030;28;20505;-58
2023/09/28 10:16:18;;;;;;;6.05;3.58;;;;;;;;;;5107077;28;20536;-59
2023/09/28 10:18:47;;;;;;;7.90;3.47;;;;;;;;;;5106610;28;20059;-58
2023/09/28 10:21:16;;;;;;;7.85;3.40;;;;;;;;;;5088214;28;20513;-59
2023/09/28 10:23:42;;;;;;;7.43;4.00;;;;;;;;;;5106518;28;20038;-59
2023/09/28 10:26:14;;;;;;;9.23;3.75;;;;;;;;;;5105316;28;20023;-58
2023/09/28 10:29:00;;;;;;;7.88;3.67;;;;;;;;;;5105994;28;20506;-58
2023/09/28 10:31:28;;;;;;;6.28;3.45;;;;;;;;;;5088138;28;20040;-59
2023/09/28 10:33:59;;;;;;;9.43;3.97;;;;;;;;;;5106427;28;20031;-58
2023/09/28 10:36:26;;;;;;;13.18;3.75;;;;;;;;;;5106337;28;20047;-58
2023/09/28 10:39:17;;;;;;;8.30;3.72;;;;;;;;;;5103992;28;20048;-58
2023/09/28 10:41:52;;;;;;;7.63;4.00;;;;;;;;;;5104119;28;20047;-58
2023/09/28 10:44:20;;;;;;;6.50;3.20;;;;;;;;;;5104264;28;20044;-58
2023/09/28 10:46:48;;;;;;;5.00;3.20;;;;;;;;;;5084792;28;20046;-58
2023/09/28 10:49:26;;;;;;;7.63;3.15;;;;;;;;;;5106403;28;20042;-58
2023/09/28 10:51:55;;;;;;;5.35;3.22;;;;;;;;;;5107096;28;20042;-58
2023/09/28 10:54:24;;;;;;;6.68;3.55;;;;;;;;;;5105037;28;20509;-58
2023/09/28 10:56:51;;;;;;;6.53;3.13;;;;;;;;;;5101509;28;20044;-58
2023/09/28 10:59:21;;;;;;;5.50;3.15;;;;;;;;;;5105807;28;20040;-58
2023/09/28 11:01:48;;;;;;;5.40;3.15;;;;;;;;;;5105278;28;20044;-59
2023/09/28 11:04:16;;;;;;;6.33;3.20;;;;;;;;;;5088046;28;20131;-58
2023/09/28 11:06:43;;;;;;;6.38;3.70;;;;;;;;;;5106346;28;20035;-59
2023/09/28 11:09:11;;;;;;;5.53;3.05;;;;;;;;;;5103169;28;20035;-60
2023/09/28 11:11:37;;;;;;;5.30;3.03;;;;;;;;;;5089901;28;20410;-59
2023/09/28 11:14:07;;;;;;;6.32;3.88;;;;;;;;;;5104581;28;20044;-58
2023/09/28 11:16:34;;;;;;;5.25;3.35;;;;;;;;;;5105986;28;20510;-59
2023/09/28 11:19:01;;;;;;;6.90;3.30;;;;;;;;;;5106199;28;20074;-59
2023/09/28 11:21:29;;;;;;;6.25;3.03;;;;;;;;;;5105523;28;20036;-58
2023/09/28 11:23:55;;;;;;;5.13;3.03;;;;;;;;;;5103762;28;20035;-59
2023/09/28 11:26:22;;;;;;;4.30;2.72;;;;;;;;;;5106983;28;20036;-59
2023/09/28 11:28:50;;;;;;;6.07;2.92;;;;;;;;;;5087655;28;20031;-57
2023/09/28 11:31:16;;;;;;;4.65;2.70;;;;;;;;;;5104761;28;20395;-59
2023/09/28 11:33:46;;;;;;;5.05;2.80;;;;;;;;;;5103463;28;20038;-59
2023/09/28 11:36:15;;;;;;;6.43;2.90;;;;;;;;;;5103764;28;20047;-59
2023/09/28 11:38:42;;;;;;;4.70;2.85;;;;;;;;;;5071344;28;20034;-60
2023/09/28 11:41:08;;;;;;;8.10;2.95;;;;;;;;;;5099542;28;20043;-60
2023/09/28 11:43:56;;;;;;;5.68;3.30;;;;;;;;;;5101179;28;20042;-60
2023/09/28 11:46:27;;;;;;;4.72;2.63;;;;;;;;;;5105845;28;20036;-60
2023/09/28 11:49:09;;;;;;;5.75;3.03;;;;;;;;;;5106502;28;20055;-61
2023/09/28 11:51:37;;;;;;;4.78;2.60;;;;;;;;;;5104163;28;20044;-59
2023/09/28 11:54:11;;;;;;;6.07;2.40;;;;;;;;;;5087020;28;20062;-60
2023/09/28 11:56:39;;;;;;;7.63;2.67;;;;;;;;;;5085911;28;20044;-60
2023/09/28 11:59:07;;;;;;;7.88;2.75;;;;;;;;;;5085354;28;20058;-61
2023/09/28 12:01:34;;;;;;;3.95;2.38;;;;;;;;;;5088973;28;20047;-61
2023/09/28 12:04:00;;;;;;;4.40;2.60;;;;;;;;;;5101616;28;20055;-61
2023/09/28 12:06:27;;;;;;;6.65;2.30;;;;;;;;;;5105813;28;20066;-61
2023/09/28 12:08:53;;;;;;;5.13;2.00;;;;;;;;;;5105575;28;20039;-62
2023/09/28 12:11:19;;;;;;;4.32;2.45;;;;;;;;;;5103699;28;20044;-60
2023/09/28 12:13:46;;;;;;;5.70;2.40;;;;;;;;;;5106207;28;20054;-61
2023/09/28 12:16:12;;;;;;;3.40;2.40;;;;;;;;;;5087444;28;20036;-61
2023/09/28 12:18:38;;;;;;;5.00;2.10;;;;;;;;;;5106275;28;20051;-61
2023/09/28 12:21:05;;;;;;;6.03;2.50;;;;;;;;;;5102557;28;20056;-60
2023/09/28 12:23:32;;;;;;;4.60;2.30;;;;;;;;;;5104463;28;20410;-61
2023/09/28 12:26:01;;;;;;;6.97;2.33;;;;;;;;;;5106263;28;20058;-61
2023/09/28 12:28:27;;;;;;;4.50;2.40;;;;;;;;;;5105466;28;20490;-59
2023/09/28 12:30:54;;;;;;;5.05;2.40;;;;;;;;;;5103379;28;20040;-61
2023/09/28 12:33:20;;;;;;;3.20;2.00;;;;;;;;;;5104519;28;20043;-61
2023/09/28 12:35:47;;;;;;;3.58;1.98;;;;;;;;;;5105047;28;20051;-60
2023/09/28 12:38:13;;;;;;;3.90;2.20;;;;;;;;;;5103275;28;20032;-61
2023/09/28 12:40:39;;;;;;;2.95;1.83;;;;;;;;;;5104932;28;20044;-61
2023/09/28 12:43:05;;;;;;;3.63;2.05;;;;;;;;;;5108601;28;20050;-60
2023/09/28 12:45:33;;;;;;;5.25;2.10;;;;;;;;;;5104922;28;20066;-61
2023/09/28 12:48:03;;;;;;;2.47;1.90;;;;;;;;;;5107497;28;20736;-60
2023/09/28 12:50:30;;;;;;;4.72;2.15;;;;;;;;;;5105615;28;20050;-61
2023/09/28 12:52:57;;;;;;;3.88;2.20;;;;;;;;;;5108944;28;20051;-61
2023/09/28 12:55:24;;;;;;;3.25;1.90;;;;;;;;;;5105350;28;20545;-61
2023/09/28 12:57:54;;;;;;;4.82;2.00;;;;;;;;;;5106015;28;20027;-61
2023/09/28 13:00:25;;;;;;;3.90;1.90;;;;;;;;;;5106655;28;20040;-61
2023/09/28 13:02:52;;;;;;;3.50;2.05;;;;;;;;;;5109513;28;20062;-61
2023/09/28 13:05:18;;;;;;;4.03;1.83;;;;;;;;;;5104730;28;20439;-61
2023/09/28 13:07:45;;;;;;;4.18;1.60;;;;;;;;;;5109648;28;20024;-61
2023/09/28 13:10:15;;;;;;;3.38;1.70;;;;;;;;;;5109585;28;21731;-61
2023/09/28 13:12:43;;;;;;;4.32;2.20;;;;;;;;;;5091965;28;20035;-61
2023/09/28 13:15:13;;;;;;;4.30;1.90;;;;;;;;;;5107274;28;20526;-61
2023/09/28 13:17:40;;;;;;;3.50;1.88;;;;;;;;;;5108434;28;20039;-61
2023/09/28 13:20:11;;;;;;;2.20;1.70;;;;;;;;;;5105875;28;20040;-61
2023/09/28 13:22:37;;;;;;;5.05;1.42;;;;;;;;;;5107361;28;20043;-61
2023/09/28 13:25:09;;;;;;;2.67;1.48;;;;;;;;;;5107604;28;20044;-61
2023/09/28 13:27:35;;;;;;;1.83;1.45;;;;;;;;;;5106152;28;20359;-60
2023/09/28 13:30:08;;;;;;;1.92;1.55;;;;;;;;;;5107014;28;20070;-60
2023/09/28 13:32:35;;;;;;;5.22;1.80;;;;;;;;;;5103947;28;20513;-61
2023/09/28 13:35:03;;;;;;;5.03;2.10;;;;;;;;;;5106796;28;20050;-60
2023/09/28 13:37:29;;;;;;;3.78;1.85;;;;;;;;;;5106907;28;20051;-61
2023/09/28 13:39:55;;;;;;;4.30;1.95;;;;;;;;;;5105831;28;20040;-60
2023/09/28 13:42:21;;;;;;;4.47;2.10;;;;;;;;;;5104807;28;20051;-61
2023/09/28 13:44:47;;;;;;;4.57;1.95;;;;;;;;;;5087808;28;20031;-61
2023/09/28 13:47:13;;;;;;;3.15;1.55;;;;;;;;;;5105763;28;20387;-61
2023/09/28 13:49:39;;;;;;;4.10;1.60;;;;;;;;;;5104202;28;20070;-62
2023/09/28 13:52:06;;;;;;;4.35;2.03;;;;;;;;;;5085896;28;20044;-60
2023/09/28 13:54:34;;;;;;;2.90;1.58;;;;;;;;;;5070527;28;20028;-60
2023/09/28 13:57:07;;;;;;;;;;;;;;;;;;5108379;28;20494;-60
2023/09/28 13:59:33;;;;;;;1.92;1.52;;;;;;;;;;5108422;28;19915;-61
2023/09/28 14:01:59;;;;;;;3.28;1.60;;;;;;;;;;5104956;28;20062;-60
2023/09/28 14:04:26;;;;;;;3.50;1.80;;;;;;;;;;5105756;28;20047;-59
2023/09/28 14:06:54;;;;;;;4.10;1.77;;;;;;;;;;5105090;28;20499;-60
2023/09/28 14:09:24;;;;;;;5.72;1.75;;;;;;;;;;5089029;28;20031;-60
2023/09/28 14:11:51;;;;;;;10.25;7.00;;;;;;;;;;5104662;28;20608;-60
2023/09/28 14:14:17;;;;;;;47.22;35.67;;;;;;;;;;5105014;28;20530;-60
2023/09/28 14:16:43;;;;;;;24.90;18.63;;;;;;;;;;5107552;28;20035;-61
2023/09/28 14:19:11;;;;;;;7.82;5.50;;;;;;;;;;5105859;28;20032;-60
2023/09/28 14:21:37;;;;;;;15.85;9.70;;;;;;;;;;5108508;28;20483;-59
2023/09/28 14:24:07;;;;;;;17.02;11.60;;;;;;;;;;5105574;28;20414;-61
2023/09/28 14:26:37;;;;;;;25.13;17.67;;;;;;;;;;5107504;28;20498;-61
2023/09/28 14:29:04;;;;;;;17.70;12.18;;;;;;;;;;5106360;28;20043;-61
2023/09/28 14:31:31;;;;;;;46.65;30.70;;;;;;;;;;5105805;28;20050;-61
2023/09/28 14:33:58;;;;;;;21.23;12.90;;;;;;;;;;5103888;28;20050;-60
2023/09/28 14:36:25;;;;;;;19.08;11.73;;;;;;;;;;5105369;28;20071;-60